CAGO2: Washita River At Carnegie, OK

Data processed at Wed May 22 2019 23:30


All information presented herein is the property of the government of the United States of America and may be revised or deleted at any time without prior notice.
Dissemination of this information without the expressed written consent of the Public Affairs Office, Tulsa District U.S. Army Corps of Engineers is strictly prohibited.
These data are gathered electronically and, as presented, have not undergone any form of quality control. These data are not guaranteed to be valid or correct.
Go to home page.
Go to station list.
Go to home page.

Upstream stations:

Downstream station:
Previous Day
Next Day
Current Day
    
SHEF ID:       CAGO2     Washita River at Carnegie, OK
STATION TYPE:  
Regulating: Stage =    23.00, Flow =     9915

               PRECIP     STAGE  RIV-FLOW  BAT-LOAD
                   in        ft       cfs      volt
              Ccp-Rev   Ccp-Rev   Ccp-Rev   Ccp-Rev
(US/Central)
05/22 00:00      0.00     18.25      5653     12.73
05/22 01:00      0.00     18.36      5741     12.73
05/22 02:00      0.00     18.38      5757     12.65
05/22 03:00      0.00     18.44      5805     12.65
05/22 04:00      0.00     18.47      5830     12.65
05/22 05:00      0.00     18.50      5854     12.65
05/22 06:00      0.00     18.54      5886     12.57
05/22 07:00      0.00     18.58      5919     12.57
05/22 08:00      0.00     18.57      5911     12.65
05/22 09:00      0.00     18.58      5919     13.37
05/22 10:00      0.00     18.62      5952     13.44
05/22 11:00      0.00     18.65      5976     13.21
05/22 12:00      0.00     18.69      6009     13.29
05/22 13:00      0.00     18.70      6017     13.68
05/22 14:00      0.00     18.73      6042     13.21
05/22 15:00      0.00     18.79      6092     13.05
05/22 16:00      0.00     18.82      6116     12.97
05/22 17:00      0.00     18.85      6141     13.21
05/22 18:00      0.00     18.88      6166     12.97
05/22 19:00      0.00     18.89      6174     12.97
05/22 20:00      0.00     18.92      6199     12.89
05/22 21:00      0.00     18.92      6199     12.89
05/22 22:00      0.00     19.00      6266     12.81
05/22 23:00      0.00     19.00      6266     12.81